Time;durP1;ratioP1;P1;durP2;ratioP2;P2;SDS_P1;SDS_P2;PMS_P1;PMS_P2;Temp;Humidity;BMP_temperature;BMP_pressure;BME280_temperature;BME280_humidity;BME280_pressure;Samples;Min_cycle;Max_cycle;Signal;HPM_P1;HPM_P2
2021/09/10 00:00:49;;;;;;;0.00;0.00;;;;;;;21.58;65.73;99991.16;2613266;31;20042;-60
2021/09/10 00:03:16;;;;;;;0.00;0.00;;;;;;;21.57;66.35;99986.84;2613898;31;20037;-61
2021/09/10 00:05:44;;;;;;;0.00;0.00;;;;;;;21.55;65.42;99982.63;2612839;31;20545;-61
2021/09/10 00:08:11;;;;;;;0.00;0.00;;;;;;;21.55;65.64;99988.78;2615058;31;20459;-60
2021/09/10 00:10:38;;;;;;;0.00;0.00;;;;;;;21.55;66.22;99990.59;2612413;31;20041;-60
2021/09/10 00:13:05;;;;;;;;;;;;;;;21.64;63.48;99992.50;2610427;31;20030;-59
2021/09/10 00:15:33;;;;;;;0.00;0.00;;;;;;;21.57;66.12;99994.81;2612861;31;20053;-59
2021/09/10 00:18:00;;;;;;;0.00;0.00;;;;;;;21.55;65.35;99993.25;2610636;31;20038;-60
2021/09/10 00:20:27;;;;;;;0.00;0.00;;;;;;;21.48;66.20;99983.09;2613071;31;20038;-61
2021/09/10 00:22:54;;;;;;;0.00;0.00;;;;;;;21.50;65.71;99988.31;2608957;36;20450;-60
2021/09/10 00:25:21;;;;;;;0.00;0.00;;;;;;;21.48;66.54;99991.06;2612373;31;20049;-61
2021/09/10 00:27:48;;;;;;;0.00;0.00;;;;;;;21.47;66.02;99997.34;2611577;36;20069;-60
2021/09/10 00:30:15;;;;;;;0.00;0.00;;;;;;;21.46;65.69;99993.00;2612663;31;20065;-60
2021/09/10 00:32:42;;;;;;;0.00;0.00;;;;;;;21.45;66.96;99993.97;2614805;31;20602;-60
2021/09/10 00:35:11;;;;;;;0.08;0.08;;;;;;;21.37;66.31;99983.09;2615459;31;20151;-60
2021/09/10 00:37:38;;;;;;;0.00;0.00;;;;;;;21.42;66.44;99988.91;2613668;31;20034;-60
2021/09/10 00:40:05;;;;;;;0.00;0.00;;;;;;;21.42;65.93;99996.88;2614059;31;20210;-60
2021/09/10 00:42:33;;;;;;;0.00;0.00;;;;;;;21.41;66.26;99992.53;2613135;31;20035;-60
2021/09/10 00:45:00;;;;;;;0.00;0.00;;;;;;;21.40;66.13;99992.66;2612757;36;20419;-60
2021/09/10 00:47:27;;;;;;;0.00;0.00;;;;;;;21.39;65.89;99996.25;2612287;31;20046;-61
2021/09/10 00:49:55;;;;;;;0.00;0.00;;;;;;;21.39;65.86;99999.78;2610139;31;20034;-60
2021/09/10 00:52:22;;;;;;;0.00;0.00;;;;;;;21.38;66.54;100003.38;2613082;31;20087;-60
2021/09/10 00:54:49;;;;;;;0.00;0.00;;;;;;;21.36;66.11;99999.16;2613855;31;20183;-59
2021/09/10 00:57:18;;;;;;;0.00;0.00;;;;;;;21.33;65.88;99996.75;2614121;31;20045;-59
2021/09/10 00:59:45;;;;;;;0.00;0.00;;;;;;;21.34;65.67;99996.63;2612587;31;20031;-60
2021/09/10 01:02:13;;;;;;;0.00;0.00;;;;;;;21.33;66.01;100000.25;2613095;31;20539;-60
2021/09/10 01:04:41;;;;;;;0.00;0.00;;;;;;;21.31;65.44;99991.56;2612368;31;20581;-61
2021/09/10 01:07:10;;;;;;;0.00;0.00;;;;;;;21.33;65.47;100000.25;2612399;31;20039;-60
2021/09/10 01:09:38;;;;;;;0.00;0.00;;;;;;;21.21;65.78;99979.94;2612952;31;20038;-60
2021/09/10 01:12:06;;;;;;;0.00;0.00;;;;;;;21.22;65.73;99984.28;2613489;31;20434;-60
2021/09/10 01:14:34;;;;;;;0.00;0.00;;;;;;;21.30;66.37;99997.84;2611947;31;20145;-60
2021/09/10 01:17:01;;;;;;;0.00;0.00;;;;;;;21.28;65.76;99990.91;2613129;31;20038;-60
2021/09/10 01:19:31;;;;;;;0.00;0.00;;;;;;;21.30;65.91;99989.88;2613278;31;20546;-60
2021/09/10 01:22:01;;;;;;;0.00;0.00;;;;;;;21.30;65.53;99989.88;2611145;31;20031;-60
2021/09/10 01:24:39;;;;;;;0.00;0.00;;;;;;;21.27;64.99;99987.41;2610608;36;20041;-61
2021/09/10 01:27:08;;;;;;;0.00;0.00;;;;;;;21.29;65.62;99993.47;2611828;36;20030;-60
2021/09/10 01:29:36;;;;;;;0.00;0.00;;;;;;;21.28;65.90;99993.56;2611379;36;20034;-60
2021/09/10 01:32:03;;;;;;;0.00;0.00;;;;;;;21.28;65.92;99997.06;2611823;31;20034;-60
2021/09/10 01:34:30;;;;;;;0.00;0.00;;;;;;;21.19;65.61;99987.19;2611890;36;20031;-59
2021/09/10 01:36:58;;;;;;;0.00;0.00;;;;;;;21.24;66.38;99998.28;2611798;31;20031;-60
2021/09/10 01:39:24;;;;;;;0.00;0.00;;;;;;;21.23;66.66;100000.09;2613493;31;20546;-60
2021/09/10 01:41:52;;;;;;;0.00;0.00;;;;;;;21.22;66.19;99992.25;2614343;31;20631;-60
2021/09/10 01:44:19;;;;;;;0.00;0.00;;;;;;;21.14;65.66;99994.66;2613071;36;20030;-61
2021/09/10 01:46:46;;;;;;;0.00;0.00;;;;;;;21.18;65.85;100006.72;2613120;31;20172;-60
2021/09/10 01:49:13;;;;;;;;;;;;;;;21.22;64.28;100002.88;2611411;36;20060;-60
2021/09/10 01:51:40;;;;;;;0.10;0.10;;;;;;;21.16;66.63;100008.66;2614272;31;20075;-60
2021/09/10 01:54:07;;;;;;;0.00;0.00;;;;;;;21.14;66.02;100007.94;2615066;31;20550;-60
2021/09/10 01:56:35;;;;;;;0.00;0.00;;;;;;;21.12;66.48;100009.84;2612281;31;20076;-60
2021/09/10 01:59:02;;;;;;;0.00;0.00;;;;;;;21.10;66.64;100003.84;2609943;31;20038;-60
2021/09/10 02:01:33;;;;;;;0.00;0.00;;;;;;;21.07;66.60;100004.91;2612742;31;20059;-60
2021/09/10 02:04:02;;;;;;;0.00;0.00;;;;;;;21.06;66.68;100008.53;2613946;31;20030;-60
2021/09/10 02:06:29;;;;;;;0.00;0.00;;;;;;;21.03;67.08;100014.06;2610594;31;20030;-60
2021/09/10 02:08:56;;;;;;;0.00;0.00;;;;;;;21.02;66.25;100019.50;2612363;31;20042;-60
2021/09/10 02:11:23;;;;;;;0.00;0.00;;;;;;;20.99;66.83;100017.94;2611469;31;20114;-60
2021/09/10 02:13:50;;;;;;;0.00;0.00;;;;;;;20.97;66.32;100015.38;2611475;31;20038;-60
2021/09/10 02:16:18;;;;;;;0.00;0.00;;;;;;;20.95;66.43;100017.31;2610102;31;20038;-60
2021/09/10 02:18:45;;;;;;;0.00;0.00;;;;;;;20.94;66.45;100014.78;2610099;36;20037;-59
2021/09/10 02:21:14;;;;;;;0.00;0.00;;;;;;;20.94;66.34;100015.63;2611681;31;20057;-60
2021/09/10 02:23:41;;;;;;;0.00;0.00;;;;;;;20.93;66.10;100010.41;2612913;31;20038;-60
2021/09/10 02:26:08;;;;;;;0.00;0.00;;;;;;;20.92;66.59;100006.94;2612246;31;20038;-59
2021/09/10 02:28:35;;;;;;;0.00;0.00;;;;;;;20.93;66.19;100018.38;2612510;31;20037;-60
2021/09/10 02:31:04;;;;;;;0.00;0.00;;;;;;;20.92;66.30;100011.38;2612446;31;20038;-60
2021/09/10 02:33:32;;;;;;;0.00;0.00;;;;;;;20.91;66.32;100010.56;2613195;31;20040;-60
2021/09/10 02:36:00;;;;;;;0.00;0.00;;;;;;;20.93;66.30;100019.25;2610630;31;20041;-60
2021/09/10 02:38:27;;;;;;;0.00;0.00;;;;;;;20.69;66.32;99973.38;2611334;31;20042;-60
2021/09/10 02:40:54;;;;;;;0.00;0.00;;;;;;;20.94;65.86;100009.47;2611478;31;20057;-60
2021/09/10 02:43:21;;;;;;;0.00;0.00;;;;;;;20.95;66.81;100017.31;2611234;31;20664;-60
2021/09/10 02:45:48;;;;;;;0.00;0.00;;;;;;;20.94;66.26;100015.63;2608613;36;20150;-60
2021/09/10 02:48:15;;;;;;;0.00;0.00;;;;;;;20.96;66.31;100013.69;2611709;31;20472;-60
2021/09/10 02:50:42;;;;;;;0.00;0.00;;;;;;;20.96;66.04;100013.69;2611120;31;20150;-60
2021/09/10 02:53:09;;;;;;;0.10;0.10;;;;;;;20.96;65.51;100019.00;2610820;31;20060;-60
2021/09/10 02:55:37;;;;;;;;;;;;;;;21.04;64.39;100020.25;2610678;36;20211;-60
2021/09/10 02:58:04;;;;;;;;;;;;;;;21.05;64.17;100016.63;2612331;31;20835;-61
2021/09/10 03:00:31;;;;;;;0.00;0.00;;;;;;;20.99;65.90;100018.78;2610351;31;19950;-60
2021/09/10 03:02:58;;;;;;;0.00;0.00;;;;;;;20.97;65.62;100015.38;2611509;36;20442;-59
2021/09/10 03:05:25;;;;;;;0.00;0.00;;;;;;;20.95;65.88;100022.63;2609147;31;20034;-60
2021/09/10 03:07:53;;;;;;;0.00;0.00;;;;;;;20.94;66.01;100022.75;2610232;31;20038;-60
2021/09/10 03:10:20;;;;;;;0.00;0.00;;;;;;;20.91;65.65;100015.84;2610298;31;20076;-60
2021/09/10 03:12:47;;;;;;;0.00;0.00;;;;;;;20.93;66.07;100018.38;2611065;31;20035;-60
2021/09/10 03:15:14;;;;;;;0.08;0.08;;;;;;;20.92;65.90;100020.19;2610152;36;20038;-59
2021/09/10 03:17:42;;;;;;;0.00;0.00;;;;;;;20.93;65.85;100019.25;2609557;31;20030;-61
2021/09/10 03:20:10;;;;;;;0.00;0.00;;;;;;;20.93;65.90;100024.56;2611022;31;20034;-59
2021/09/10 03:22:37;;;;;;;0.00;0.00;;;;;;;20.94;65.57;100026.25;2611409;31;20039;-60
2021/09/10 03:25:06;;;;;;;0.00;0.00;;;;;;;20.95;65.92;100021.78;2611162;31;20117;-60
2021/09/10 03:27:35;;;;;;;0.00;0.00;;;;;;;20.94;65.81;100020.94;2611145;31;20044;-59
2021/09/10 03:30:06;;;;;;;0.00;0.00;;;;;;;20.99;65.44;100024.09;2610578;31;20039;-59
2021/09/10 03:32:33;;;;;;;0.00;0.00;;;;;;;20.96;65.65;100021.66;2610696;31;20055;-60
2021/09/10 03:35:00;;;;;;;0.00;0.00;;;;;;;20.92;65.38;100014.88;2611265;31;20723;-60
2021/09/10 03:37:27;;;;;;;0.00;0.00;;;;;;;20.95;65.70;100025.28;2609366;36;20059;-60
2021/09/10 03:39:53;;;;;;;0.00;0.00;;;;;;;20.96;65.86;100024.31;2610476;31;20304;-59
2021/09/10 03:42:20;;;;;;;0.00;0.00;;;;;;;20.97;66.09;100030.47;2613749;31;20735;-61
2021/09/10 03:44:47;;;;;;;0.00;0.00;;;;;;;20.96;66.19;100026.97;2609677;36;20050;-59
2021/09/10 03:47:14;;;;;;;0.00;0.00;;;;;;;20.95;65.90;100022.63;2610587;36;20621;-60
2021/09/10 03:49:41;;;;;;;0.00;0.00;;;;;;;20.96;65.63;100026.13;2611479;31;20653;-60
2021/09/10 03:52:09;;;;;;;0.00;0.00;;;;;;;20.92;66.14;100016.69;2610686;31;20034;-59
2021/09/10 03:54:35;;;;;;;0.00;0.00;;;;;;;20.96;65.41;100024.31;2609636;36;20105;-61
2021/09/10 03:57:03;;;;;;;0.00;0.00;;;;;;;20.96;65.68;100026.97;2611740;31;20150;-60
2021/09/10 03:59:30;;;;;;;0.00;0.00;;;;;;;20.95;65.72;100027.94;2612099;31;20041;-60
2021/09/10 04:01:58;;;;;;;0.00;0.00;;;;;;;20.90;66.25;100019.47;2611854;31;20030;-59
2021/09/10 04:04:25;;;;;;;0.00;0.00;;;;;;;20.95;65.98;100029.75;2610852;31;20137;-61
2021/09/10 04:06:55;;;;;;;0.00;0.00;;;;;;;20.95;65.64;100033.25;2610254;31;20027;-60
2021/09/10 04:09:24;;;;;;;0.00;0.00;;;;;;;20.87;65.67;100006.44;2609606;31;20852;-59
2021/09/10 04:11:51;;;;;;;0.00;0.00;;;;;;;20.94;65.73;100020.94;2610505;36;20034;-59
2021/09/10 04:14:18;;;;;;;0.00;0.00;;;;;;;20.95;65.63;100025.28;2611715;31;20489;-61
2021/09/10 04:16:45;;;;;;;0.00;0.00;;;;;;;20.94;65.45;100028.91;2612069;31;20561;-60
2021/09/10 04:19:12;;;;;;;0.10;0.10;;;;;;;20.94;66.05;100026.25;2609068;31;20030;-60
2021/09/10 04:21:39;;;;;;;0.00;0.00;;;;;;;20.94;65.57;100026.25;2611853;31;20042;-60
2021/09/10 04:24:06;;;;;;;0.00;0.00;;;;;;;20.93;65.63;100024.56;2610837;36;20460;-60
2021/09/10 04:26:33;;;;;;;0.00;0.00;;;;;;;20.93;65.66;100021.03;2610859;31;20041;-60
2021/09/10 04:29:00;;;;;;;0.00;0.00;;;;;;;20.91;65.90;100015.84;2610600;31;20042;-60
2021/09/10 04:31:26;;;;;;;0.00;0.00;;;;;;;20.93;65.70;100018.38;2611007;36;20272;-60
2021/09/10 04:33:53;;;;;;;0.00;0.00;;;;;;;20.91;65.61;100012.34;2611153;31;20038;-61
2021/09/10 04:36:20;;;;;;;0.00;0.00;;;;;;;20.91;65.80;100010.56;2609444;36;20467;-60
2021/09/10 04:38:47;;;;;;;0.00;0.00;;;;;;;20.90;65.67;100014.16;2611409;31;20030;-60
2021/09/10 04:41:14;;;;;;;0.00;0.00;;;;;;;20.89;65.30;100017.78;2611365;31;20042;-59
2021/09/10 04:43:40;;;;;;;0.00;0.00;;;;;;;20.87;65.55;100014.38;2611439;31;20035;-60
2021/09/10 04:46:07;;;;;;;0.00;0.00;;;;;;;20.87;65.43;100017.06;2609493;31;20067;-60
2021/09/10 04:48:35;;;;;;;0.00;0.00;;;;;;;20.87;65.42;100018.84;2611587;31;20129;-60
2021/09/10 04:51:02;;;;;;;0.00;0.00;;;;;;;20.84;65.75;100019.97;2611900;31;20119;-60
2021/09/10 04:53:29;;;;;;;0.00;0.00;;;;;;;20.86;65.75;100012.72;2612237;31;20145;-59
2021/09/10 04:55:57;;;;;;;0.00;0.00;;;;;;;20.77;65.47;100004.59;2611087;31;20030;-59
2021/09/10 04:58:25;;;;;;;0.00;0.00;;;;;;;20.86;65.43;100018.00;2609879;31;20042;-59
2021/09/10 05:00:52;;;;;;;0.00;0.00;;;;;;;20.84;65.58;100019.13;2610908;31;20030;-59
2021/09/10 05:03:19;;;;;;;;;;;;;;;20.91;64.01;100023.81;2613138;31;20064;-60
2021/09/10 05:05:46;;;;;;;0.00;0.00;;;;;;;20.85;65.32;100026.09;2610023;31;19954;-60
2021/09/10 05:08:13;;;;;;;0.00;0.00;;;;;;;20.84;65.39;100027.91;2610689;31;20034;-60
2021/09/10 05:10:40;;;;;;;0.00;0.00;;;;;;;20.82;65.85;100026.31;2609951;31;20038;-60
2021/09/10 05:13:07;;;;;;;0.00;0.00;;;;;;;20.81;65.27;100022.84;2610638;31;20649;-60
2021/09/10 05:15:34;;;;;;;0.00;0.00;;;;;;;20.72;65.56;100007.59;2609835;36;20034;-60
2021/09/10 05:18:01;;;;;;;0.00;0.00;;;;;;;20.81;65.38;100028.13;2610328;36;20624;-61
2021/09/10 05:20:28;;;;;;;0.00;0.00;;;;;;;20.80;65.51;100031.75;2610815;31;20078;-59
2021/09/10 05:22:55;;;;;;;0.00;0.00;;;;;;;20.80;65.70;100034.41;2610648;31;20030;-60
2021/09/10 05:25:23;;;;;;;0.00;0.00;;;;;;;20.80;65.42;100034.41;2629251;31;20771;-60
2021/09/10 05:27:51;;;;;;;0.00;0.00;;;;;;;20.79;65.98;100043.34;2610811;31;20042;-60
2021/09/10 05:30:18;;;;;;;0.00;0.00;;;;;;;20.79;65.80;100043.34;2609188;31;20031;-59
2021/09/10 05:32:44;;;;;;;0.00;0.00;;;;;;;20.79;65.94;100043.34;2610515;31;20063;-61
2021/09/10 05:35:14;;;;;;;0.00;0.00;;;;;;;20.81;66.03;100052.03;2610855;31;20555;-59
2021/09/10 05:37:41;;;;;;;0.00;0.00;;;;;;;20.82;65.84;100050.22;2611142;31;20063;-60
2021/09/10 05:40:09;;;;;;;0.00;0.00;;;;;;;20.81;65.62;100051.19;2611076;31;20034;-60
2021/09/10 05:42:37;;;;;;;0.00;0.00;;;;;;;20.81;65.96;100052.03;2610107;36;20034;-60
2021/09/10 05:45:06;;;;;;;0.00;0.00;;;;;;;20.84;65.97;100059.75;2610109;31;20034;-60
2021/09/10 05:47:33;;;;;;;0.00;0.00;;;;;;;20.82;65.63;100056.34;2611648;31;20055;-59
2021/09/10 05:50:00;;;;;;;0.00;0.00;;;;;;;20.83;65.83;100060.69;2610858;31;20121;-59
2021/09/10 05:52:27;;;;;;;0.00;0.00;;;;;;;20.84;66.02;100073.03;2610764;31;20031;-59
2021/09/10 05:54:54;;;;;;;0.00;0.00;;;;;;;20.84;65.78;100067.72;2610365;36;20153;-58
2021/09/10 05:57:21;;;;;;;0.00;0.00;;;;;;;20.84;65.79;100075.69;2610703;31;20030;-60
2021/09/10 05:59:48;;;;;;;0.00;0.00;;;;;;;20.81;65.95;100075.91;2612455;31;20050;-61
2021/09/10 06:02:15;;;;;;;0.00;0.00;;;;;;;20.85;65.92;100082.69;2614020;31;20658;-60
2021/09/10 06:04:43;;;;;;;0.00;0.00;;;;;;;20.82;66.22;100069.63;2610855;31;20058;-60
2021/09/10 06:07:11;;;;;;;0.00;0.00;;;;;;;20.84;66.31;100077.50;2611739;31;20030;-60
2021/09/10 06:09:38;;;;;;;0.00;0.00;;;;;;;20.85;66.20;100087.16;2610738;36;20670;-59
2021/09/10 06:12:05;;;;;;;0.00;0.00;;;;;;;20.82;66.84;100082.91;2610677;36;20759;-60
2021/09/10 06:14:33;;;;;;;0.00;0.00;;;;;;;20.83;66.45;100092.53;2613122;31;20034;-60
2021/09/10 06:17:00;;;;;;;0.00;0.00;;;;;;;20.80;67.25;100092.78;2610350;36;20423;-59
2021/09/10 06:19:28;;;;;;;0.00;0.00;;;;;;;20.75;67.38;100086.97;2611872;31;20437;-60
2021/09/10 06:21:55;;;;;;;0.00;0.00;;;;;;;20.73;66.60;100092.41;2612113;31;20140;-60
2021/09/10 06:24:22;;;;;;;0.00;0.00;;;;;;;20.72;67.20;100089.84;2610263;31;20033;-60
2021/09/10 06:26:49;;;;;;;0.05;0.05;;;;;;;20.71;67.65;100104.09;2611049;31;20035;-59
2021/09/10 06:29:16;;;;;;;0.00;0.00;;;;;;;20.69;67.83;100106.03;2608942;31;20042;-60
2021/09/10 06:31:44;;;;;;;0.00;0.00;;;;;;;20.58;68.54;100098.00;2610179;31;20067;-59
2021/09/10 06:34:11;;;;;;;0.00;0.00;;;;;;;20.64;68.34;100113.47;2611557;31;20058;-59
2021/09/10 06:36:37;;;;;;;0.00;0.00;;;;;;;20.60;68.52;100117.31;2610925;31;20067;-60
2021/09/10 06:39:05;;;;;;;0.00;0.00;;;;;;;20.57;68.85;100117.53;2611265;31;20042;-60
2021/09/10 06:41:32;;;;;;;0.00;0.00;;;;;;;20.52;68.60;100115.19;2609978;36;20057;-60
2021/09/10 06:43:58;;;;;;;0.00;0.00;;;;;;;20.49;68.63;100114.59;2609486;31;20665;-59
2021/09/10 06:46:25;;;;;;;0.00;0.00;;;;;;;20.46;68.92;100119.16;2609884;36;20031;-60
2021/09/10 06:48:52;;;;;;;0.00;0.00;;;;;;;20.46;68.61;100116.50;2612400;31;20544;-60
2021/09/10 06:51:19;;;;;;;0.00;0.00;;;;;;;20.47;69.04;100123.50;2611481;31;20071;-60
2021/09/10 06:53:46;;;;;;;0.00;0.00;;;;;;;20.24;69.09;100078.38;2608214;31;20041;-61
2021/09/10 06:56:13;;;;;;;0.00;0.00;;;;;;;20.49;69.02;100130.53;2613129;31;20088;-61
2021/09/10 06:58:40;;;;;;;0.00;0.00;;;;;;;20.49;69.34;100136.66;2609830;31;20041;-61
2021/09/10 07:01:07;;;;;;;0.00;0.00;;;;;;;20.50;69.35;100132.22;2610054;36;20706;-60
2021/09/10 07:03:34;;;;;;;0.00;0.00;;;;;;;20.50;68.92;100134.84;2610439;31;20057;-60
2021/09/10 07:06:03;;;;;;;0.00;0.00;;;;;;;20.52;69.63;100146.19;2610511;31;20073;-60
2021/09/10 07:08:33;;;;;;;0.00;0.00;;;;;;;20.56;68.76;100143.19;2610275;31;20135;-60
2021/09/10 07:11:03;;;;;;;0.00;0.00;;;;;;;20.55;69.28;100144.16;2611292;31;20074;-60
2021/09/10 07:13:30;;;;;;;0.00;0.00;;;;;;;20.61;69.38;100145.53;2612033;31;20031;-60
2021/09/10 07:15:58;;;;;;;0.00;0.00;;;;;;;20.63;69.24;100149.78;2610900;31;20133;-60
2021/09/10 07:18:25;;;;;;;0.03;0.03;;;;;;;20.61;69.72;100145.53;2611533;31;20050;-60
2021/09/10 07:20:52;;;;;;;0.03;0.03;;;;;;;20.69;68.58;100153.78;2609922;31;20030;-60
2021/09/10 07:23:19;;;;;;;0.00;0.00;;;;;;;20.73;69.05;100160.53;2610632;31;20030;-60
2021/09/10 07:25:46;;;;;;;0.00;0.00;;;;;;;20.76;69.61;100165.63;2609202;36;20031;-60
2021/09/10 07:28:13;;;;;;;0.00;0.00;;;;;;;20.80;69.22;100167.09;2611695;31;20536;-60
2021/09/10 07:30:40;;;;;;;0.00;0.00;;;;;;;20.83;69.41;100166.00;2610778;31;20035;-60
2021/09/10 07:33:07;;;;;;;0.00;0.00;;;;;;;20.86;69.11;100171.94;2611599;31;20059;-61
2021/09/10 07:35:34;;;;;;;0.00;0.00;;;;;;;20.89;69.19;100173.53;2610669;31;20038;-60
2021/09/10 07:38:01;;;;;;;0.00;0.00;;;;;;;20.94;69.49;100179.34;2610697;36;20088;-60
2021/09/10 07:40:28;;;;;;;0.00;0.00;;;;;;;20.95;69.26;100181.88;2611221;31;20059;-60
2021/09/10 07:42:55;;;;;;;0.00;0.00;;;;;;;20.97;69.48;100179.94;2610750;31;20033;-60
2021/09/10 07:45:22;;;;;;;0.00;0.00;;;;;;;20.98;69.37;100186.97;2628787;31;20081;-60
2021/09/10 07:47:49;;;;;;;0.03;0.03;;;;;;;20.99;69.12;100187.81;2611280;31;20458;-60
2021/09/10 07:50:16;;;;;;;0.00;0.00;;;;;;;20.99;68.66;100188.66;2608982;36;20030;-60
2021/09/10 07:52:43;;;;;;;0.00;0.00;;;;;;;21.01;68.75;100190.34;2609691;31;20034;-60
2021/09/10 07:55:10;;;;;;;0.05;0.05;;;;;;;21.00;69.31;100194.81;2610252;31;20038;-59
2021/09/10 07:57:37;;;;;;;0.10;0.10;;;;;;;21.02;69.35;100192.88;2609587;31;20034;-59
2021/09/10 08:00:04;;;;;;;0.03;0.03;;;;;;;21.05;68.94;100189.19;2611136;31;20459;-60
2021/09/10 08:02:31;;;;;;;0.00;0.00;;;;;;;21.06;69.41;100190.84;2610417;31;20045;-60
2021/09/10 08:04:59;;;;;;;0.03;0.03;;;;;;;21.11;69.59;100194.03;2611479;31;20033;-61
2021/09/10 08:07:27;;;;;;;0.10;0.10;;;;;;;21.12;69.45;100187.75;2609051;31;20683;-60
2021/09/10 08:09:58;;;;;;;0.00;0.00;;;;;;;21.20;69.02;100201.31;2608607;31;20046;-60
2021/09/10 08:12:25;;;;;;;0.00;0.00;;;;;;;21.26;69.49;100200.84;2610281;31;20030;-59
2021/09/10 08:14:52;;;;;;;0.08;0.08;;;;;;;21.21;69.08;100181.75;2607643;31;20031;-61
2021/09/10 08:17:19;;;;;;;0.00;0.00;;;;;;;21.35;69.06;100194.88;2609304;31;20035;-60
2021/09/10 08:19:49;;;;;;;0.05;0.05;;;;;;;21.39;69.06;100206.97;2610664;31;20034;-60
2021/09/10 08:22:17;;;;;;;0.00;0.00;;;;;;;21.44;68.48;100206.59;2611551;31;20034;-59
2021/09/10 08:24:55;;;;;;;0.00;0.00;;;;;;;21.50;68.45;100207.00;2610174;36;20046;-60
2021/09/10 08:27:24;;;;;;;0.08;0.08;;;;;;;21.55;68.98;100208.44;2611055;31;20129;-61
2021/09/10 08:29:53;;;;;;;0.00;0.00;;;;;;;21.62;68.41;100217.63;2609946;31;20034;-60
2021/09/10 08:32:20;;;;;;;0.00;0.00;;;;;;;21.65;68.71;100225.38;2610488;36;20041;-60
2021/09/10 08:34:47;;;;;;;0.00;0.00;;;;;;;21.70;68.82;100220.56;2609648;31;20034;-60
2021/09/10 08:37:14;;;;;;;0.00;0.00;;;;;;;21.72;68.46;100219.47;2610257;31;20030;-60
2021/09/10 08:39:41;;;;;;;0.00;0.00;;;;;;;21.78;67.93;100228.78;2611200;31;20035;-60
2021/09/10 08:42:08;;;;;;;0.00;0.00;;;;;;;21.81;67.88;100222.41;2609705;36;20059;-61
2021/09/10 08:44:40;;;;;;;0.00;0.00;;;;;;;21.86;67.76;100225.53;2610449;31;20658;-60
2021/09/10 08:47:09;;;;;;;0.00;0.00;;;;;;;21.85;67.44;100235.34;2612047;31;20932;-61
2021/09/10 08:49:37;;;;;;;0.00;0.00;;;;;;;21.80;67.24;100221.56;2610960;31;20042;-58
2021/09/10 08:52:04;;;;;;;0.08;0.08;;;;;;;21.82;67.37;100235.56;2611826;31;20065;-60
2021/09/10 08:54:31;;;;;;;0.00;0.00;;;;;;;21.83;67.77;100231.94;2609638;31;20121;-59
2021/09/10 08:56:59;;;;;;;0.00;0.00;;;;;;;21.83;67.23;100231.09;2608529;36;20038;-60
2021/09/10 08:59:27;;;;;;;0.00;0.00;;;;;;;21.86;67.47;100238.84;2611523;31;20031;-59
2021/09/10 09:01:57;;;;;;;0.00;0.00;;;;;;;21.90;67.44;100233.16;2610383;31;20037;-60
2021/09/10 09:04:38;;;;;;;0.00;0.00;;;;;;;21.96;66.97;100231.84;2610711;31;20038;-60
2021/09/10 09:07:07;;;;;;;0.00;0.00;;;;;;;21.98;67.53;100236.06;2610402;36;20494;-60
2021/09/10 09:09:45;;;;;;;0.00;0.00;;;;;;;22.08;66.89;100240.66;2609729;31;20034;-60
2021/09/10 09:12:31;;;;;;;0.00;0.00;;;;;;;22.13;67.09;100244.69;2609269;31;20045;-61
2021/09/10 09:15:00;;;;;;;0.00;0.00;;;;;;;22.11;66.84;100243.97;2608988;31;20546;-60
2021/09/10 09:17:32;;;;;;;0.00;0.00;;;;;;;22.20;67.22;100245.03;2609493;31;20030;-60
2021/09/10 09:20:11;;;;;;;0.00;0.00;;;;;;;22.31;66.52;100250.41;2610040;31;20041;-60
2021/09/10 09:23:05;;;;;;;0.00;0.00;;;;;;;22.39;66.17;100257.75;2610140;31;20629;-61
2021/09/10 09:25:40;;;;;;;0.00;0.00;;;;;;;22.42;65.54;100258.38;2572926;36;2004409;-60
2021/09/10 09:28:19;;;;;;;0.00;0.00;;;;;;;22.51;65.83;100254.97;2609883;31;20042;-60
2021/09/10 09:30:49;;;;;;;0.00;0.00;;;;;;;22.51;65.76;100260.31;2608295;31;20039;-61
2021/09/10 09:33:18;;;;;;;0.00;0.00;;;;;;;22.48;65.48;100251.72;2611355;31;20038;-61
2021/09/10 09:35:46;;;;;;;0.00;0.00;;;;;;;22.49;65.14;100246.25;2613511;31;20034;-61
2021/09/10 09:38:22;;;;;;;0.00;0.00;;;;;;;22.66;65.20;100268.03;2610200;31;20911;-61
2021/09/10 09:41:04;;;;;;;0.00;0.00;;;;;;;22.66;65.08;100257.38;2612353;31;20035;-60
2021/09/10 09:43:38;;;;;;;0.00;0.00;;;;;;;22.69;65.16;100265.09;2610965;31;20034;-60
2021/09/10 09:46:07;;;;;;;0.00;0.00;;;;;;;22.69;65.70;100267.78;2610483;36;20063;-61
2021/09/10 09:48:40;;;;;;;0.00;0.00;;;;;;;22.69;65.23;100273.94;2610848;31;20034;-61
2021/09/10 09:51:08;;;;;;;0.00;0.00;;;;;;;22.69;65.40;100270.44;2609275;31;20062;-60
2021/09/10 09:53:36;;;;;;;0.00;0.00;;;;;;;22.71;65.18;100273.84;2610830;31;20041;-60
2021/09/10 09:56:07;;;;;;;0.00;0.00;;;;;;;22.72;65.07;100262.22;2610762;31;20050;-60
2021/09/10 09:58:36;;;;;;;0.10;0.10;;;;;;;22.74;65.17;100276.22;2609337;31;20035;-60
2021/09/10 10:01:05;;;;;;;0.00;0.00;;;;;;;22.74;64.83;100271.75;2611713;36;20038;-61
2021/09/10 10:03:33;;;;;;;0.00;0.00;;;;;;;22.73;65.35;100280.72;2610696;31;20042;-61
2021/09/10 10:06:04;;;;;;;0.00;0.00;;;;;;;22.73;65.00;100274.53;2610213;31;20037;-60
2021/09/10 10:08:48;;;;;;;0.00;0.00;;;;;;;22.78;64.38;100273.22;2610089;36;20042;-61
2021/09/10 10:11:20;;;;;;;0.00;0.00;;;;;;;22.76;64.83;100274.31;2610303;31;20059;-61
2021/09/10 10:13:54;;;;;;;0.00;0.00;;;;;;;22.76;65.15;100269.84;2609824;31;20127;-60
2021/09/10 10:16:35;;;;;;;0.00;0.00;;;;;;;22.76;64.64;100271.66;2610457;31;20038;-61
2021/09/10 10:19:05;;;;;;;0.00;0.00;;;;;;;22.75;65.59;100277.91;2611489;31;20038;-60
2021/09/10 10:21:54;;;;;;;0.10;0.10;;;;;;;22.83;64.90;100280.81;2611332;31;20500;-60
2021/09/10 10:24:39;;;;;;;0.00;0.00;;;;;;;22.85;64.93;100278.03;2609997;31;20141;-60
2021/09/10 10:27:40;;;;;;;0.00;0.00;;;;;;;22.89;64.44;100280.34;2610848;31;20034;-59
2021/09/10 10:30:17;;;;;;;0.00;0.00;;;;;;;22.91;65.06;100283.75;2575535;31;2004464;-60
2021/09/10 10:32:44;;;;;;;0.00;0.00;;;;;;;22.89;65.04;100285.69;2612105;31;20034;-60
2021/09/10 10:35:28;;;;;;;0.00;0.00;;;;;;;22.96;64.55;100281.56;2609692;31;20042;-60
2021/09/10 10:38:04;;;;;;;0.00;0.00;;;;;;;22.92;64.83;100289.94;2609354;31;20556;-60
2021/09/10 10:40:41;;;;;;;0.00;0.00;;;;;;;22.99;64.31;100296.44;2612288;31;20034;-60
2021/09/10 10:43:29;;;;;;;0.00;0.00;;;;;;;23.00;64.42;100293.63;2611686;31;20179;-59
2021/09/10 10:46:05;;;;;;;0.00;0.00;;;;;;;22.92;64.40;100285.44;2612388;31;20055;-60
2021/09/10 10:48:32;;;;;;;0.00;0.00;;;;;;;22.96;64.07;100291.34;2611052;31;20041;-60
2021/09/10 10:51:17;;;;;;;0.00;0.00;;;;;;;23.02;63.46;100286.41;2612720;31;20706;-60
2021/09/10 10:53:46;;;;;;;0.00;0.00;;;;;;;23.03;63.64;100288.06;2611578;31;20134;-61
2021/09/10 10:56:29;;;;;;;0.10;0.10;;;;;;;23.10;63.47;100288.41;2611543;31;20038;-60
2021/09/10 10:59:14;;;;;;;0.03;0.03;;;;;;;23.27;63.53;100295.03;2610464;31;20034;-61
2021/09/10 11:02:24;;;;;;;0.00;0.00;;;;;;;23.44;63.24;100290.97;2613119;31;20038;-61
2021/09/10 11:05:31;;;;;;;0.00;0.00;;;;;;;23.64;62.69;100297.34;2572727;36;2004563;-61
2021/09/10 11:07:58;;;;;;;;;;;;;;;23.75;62.04;100290.13;2573671;31;2004322;-59
2021/09/10 11:10:25;;;;;;;0.00;0.00;;;;;;;23.72;61.14;100289.53;2609599;31;20003;-60
2021/09/10 11:12:56;;;;;;;0.10;0.10;;;;;;;23.78;61.75;100281.88;2608442;31;20035;-61
2021/09/10 11:15:33;;;;;;;0.00;0.00;;;;;;;23.84;61.79;100291.19;2611963;31;20145;-61
2021/09/10 11:18:14;;;;;;;0.00;0.00;;;;;;;23.86;61.53;100285.72;2612623;31;20083;-60
2021/09/10 11:20:48;;;;;;;0.00;0.00;;;;;;;23.95;60.82;100285.78;2610213;31;20034;-61
2021/09/10 11:23:36;;;;;;;0.00;0.00;;;;;;;24.04;60.89;100294.81;2611968;31;20058;-60
2021/09/10 11:26:07;;;;;;;0.10;0.10;;;;;;;24.07;60.67;100295.38;2610984;31;20038;-61
2021/09/10 11:28:38;;;;;;;0.00;0.00;;;;;;;24.10;59.64;100296.97;2628905;31;20033;-60
2021/09/10 11:31:05;;;;;;;0.00;0.00;;;;;;;24.11;59.22;100295.13;2610924;31;20873;-61
2021/09/10 11:33:43;;;;;;;0.00;0.00;;;;;;;24.16;59.43;100298.25;2611805;31;20035;-61
2021/09/10 11:36:22;;;;;;;0.00;0.00;;;;;;;24.15;59.86;100302.75;2609603;31;20038;-60